createdAt,value
2023-12-04T00:01:17.846Z,100421.41
2023-12-04T00:03:45.384Z,100418.59
2023-12-04T00:06:13.022Z,100414.13
2023-12-04T00:08:40.835Z,100399.72
2023-12-04T00:11:08.593Z,100395.34
2023-12-04T00:13:36.482Z,100389.66
2023-12-04T00:16:04.255Z,100388.00
2023-12-04T00:18:31.977Z,100385.53
2023-12-04T00:20:59.360Z,100382.84
2023-12-04T00:23:26.648Z,100369.88
2023-12-04T00:25:55.654Z,100375.13
2023-12-04T00:28:22.956Z,100365.84
2023-12-04T00:30:50.233Z,100364.41
2023-12-04T00:33:17.727Z,100366.84
2023-12-04T00:35:45.210Z,100357.69
2023-12-04T00:38:25.099Z,100347.84
2023-12-04T00:40:52.658Z,100344.44
2023-12-04T00:43:19.737Z,100336.81
2023-12-04T00:45:47.643Z,100322.63
2023-12-04T00:48:14.905Z,100323.31
2023-12-04T00:50:42.134Z,100308.28
2023-12-04T00:53:09.450Z,100299.56
2023-12-04T00:55:36.699Z,100294.91
2023-12-04T00:58:04.273Z,100292.03
2023-12-04T01:00:31.476Z,100279.47
2023-12-04T01:02:59.401Z,100295.00
2023-12-04T01:05:26.672Z,100281.03
2023-12-04T01:07:53.970Z,100277.53
2023-12-04T01:10:21.292Z,100270.75
2023-12-04T01:12:48.693Z,100256.63
2023-12-04T01:15:17.406Z,100248.00
2023-12-04T01:17:44.754Z,100246.94
2023-12-04T01:20:12.099Z,100241.31
2023-12-04T01:22:39.293Z,100231.31
2023-12-04T01:25:07.079Z,100229.34
2023-12-04T01:27:36.394Z,100223.66
2023-12-04T01:30:03.917Z,100223.00
2023-12-04T01:32:31.414Z,100208.56
2023-12-04T01:34:58.716Z,100207.66
2023-12-04T01:37:25.887Z,100216.59
2023-12-04T01:39:53.135Z,100217.03
2023-12-04T01:42:20.548Z,100219.78
2023-12-04T01:45:09.309Z,100216.03
2023-12-04T01:47:36.723Z,100213.59
2023-12-04T01:50:05.343Z,100211.59
2023-12-04T01:52:32.920Z,100200.34
2023-12-04T01:55:00.534Z,100200.28
2023-12-04T01:57:27.843Z,100186.19
2023-12-04T02:00:02.708Z,100196.25
2023-12-04T02:02:43.175Z,100202.22
2023-12-04T02:05:10.671Z,100208.06
2023-12-04T02:07:38.087Z,100205.38
2023-12-04T02:10:07.382Z,100210.47
2023-12-04T02:12:34.772Z,100199.47
2023-12-04T02:15:02.320Z,100197.50
2023-12-04T02:17:30.204Z,100203.25
2023-12-04T02:19:58.252Z,100195.41
2023-12-04T02:22:25.471Z,100202.97
2023-12-04T02:24:52.784Z,100200.69
2023-12-04T02:27:26.742Z,100190.81
2023-12-04T02:30:00.671Z,100201.03
2023-12-04T02:32:30.406Z,100202.75
2023-12-04T02:35:01.153Z,100198.63
2023-12-04T02:37:29.095Z,100203.19
2023-12-04T02:39:56.526Z,100198.94
2023-12-04T02:42:26.111Z,100207.53
2023-12-04T02:44:53.449Z,100200.31
2023-12-04T02:47:20.851Z,100191.66
2023-12-04T02:49:51.027Z,100190.06
2023-12-04T02:52:27.255Z,100188.63
2023-12-04T02:54:54.946Z,100183.31
2023-12-04T02:57:22.808Z,100178.13
2023-12-04T02:59:49.995Z,100165.53
2023-12-04T03:02:17.157Z,100158.81
2023-12-04T03:04:47.632Z,100150.84
2023-12-04T03:07:15.040Z,100151.13
2023-12-04T03:09:48.603Z,100136.88
2023-12-04T03:12:19.917Z,100133.22
2023-12-04T03:14:47.024Z,100129.06
2023-12-04T03:17:14.174Z,100121.31
2023-12-04T03:19:41.362Z,100116.00
2023-12-04T03:22:08.709Z,100116.78
2023-12-04T03:24:36.175Z,100107.78
2023-12-04T03:27:03.568Z,100119.47
2023-12-04T03:29:30.845Z,100122.41
2023-12-04T03:31:58.809Z,100123.34
2023-12-04T03:34:26.063Z,100116.75
2023-12-04T03:36:53.372Z,100116.00
2023-12-04T03:39:20.568Z,100104.97
2023-12-04T03:41:48.521Z,100103.59
2023-12-04T03:44:15.715Z,100095.00
2023-12-04T03:46:43.315Z,100088.75
2023-12-04T03:49:10.596Z,100096.63
2023-12-04T03:51:38.018Z,100097.00
2023-12-04T03:54:05.259Z,100093.59
2023-12-04T03:56:32.412Z,100098.13
2023-12-04T03:58:59.556Z,100102.56
2023-12-04T04:01:27.036Z,100083.81
2023-12-04T04:03:55.149Z,100099.81
2023-12-04T04:06:22.296Z,100091.78
2023-12-04T04:08:49.475Z,100088.66
2023-12-04T04:11:16.643Z,100084.81
2023-12-04T04:13:43.806Z,100086.81
2023-12-04T04:16:16.036Z,100089.84
2023-12-04T04:18:44.243Z,100087.41
2023-12-04T04:21:11.580Z,100075.22
2023-12-04T04:23:38.853Z,100059.38
2023-12-04T04:26:06.212Z,100055.44
2023-12-04T04:28:33.928Z,100062.84
2023-12-04T04:31:01.154Z,100042.25
2023-12-04T04:33:28.489Z,100045.13
2023-12-04T04:35:55.658Z,100032.84
2023-12-04T04:38:23.011Z,100021.75
2023-12-04T04:40:50.206Z,100015.00
2023-12-04T04:43:17.542Z,100012.72
2023-12-04T04:45:45.016Z,100023.81
2023-12-04T04:48:12.235Z,100009.09
2023-12-04T04:50:39.417Z,99996.78
2023-12-04T04:53:06.600Z,100004.41
2023-12-04T04:55:47.123Z,100000.03
2023-12-04T04:58:17.340Z,99993.50
2023-12-04T05:00:45.247Z,99986.47
2023-12-04T05:03:12.452Z,99991.75
2023-12-04T05:05:39.815Z,99981.22
2023-12-04T05:08:07.075Z,99976.44
2023-12-04T05:10:34.268Z,99963.47
2023-12-04T05:13:01.531Z,99969.63
2023-12-04T05:15:28.767Z,99968.09
2023-12-04T05:17:56.078Z,99966.31
2023-12-04T05:20:23.500Z,99950.59
2023-12-04T05:22:50.726Z,99946.38
2023-12-04T05:25:17.951Z,99934.91
2023-12-04T05:27:46.875Z,99925.63
2023-12-04T05:30:15.088Z,99922.31
2023-12-04T05:32:42.554Z,99915.00
2023-12-04T05:35:09.791Z,99905.25
2023-12-04T05:37:37.013Z,99895.53
2023-12-04T05:40:06.002Z,99886.88
2023-12-04T05:42:33.399Z,99886.53
2023-12-04T05:45:01.774Z,99883.81
2023-12-04T05:47:29.022Z,99877.97
2023-12-04T05:49:56.379Z,99875.97
2023-12-04T05:52:23.622Z,99873.66
2023-12-04T05:54:51.029Z,99864.13
2023-12-04T05:57:18.356Z,99849.53
2023-12-04T05:59:45.886Z,99851.16
2023-12-04T06:02:14.119Z,99837.56
2023-12-04T06:04:41.514Z,99840.00
2023-12-04T06:07:08.857Z,99828.59
2023-12-04T06:09:37.879Z,99819.78
2023-12-04T06:12:09.231Z,99811.59
2023-12-04T06:14:36.766Z,99814.56
2023-12-04T06:17:04.298Z,99806.50
2023-12-04T06:19:35.435Z,99795.44
2023-12-04T06:22:02.709Z,99795.84
2023-12-04T06:24:30.163Z,99794.28
2023-12-04T06:26:58.672Z,99796.47
2023-12-04T06:29:27.180Z,99794.97
2023-12-04T06:31:54.991Z,99790.94
2023-12-04T06:34:22.803Z,99793.38
2023-12-04T06:36:50.389Z,99784.66
2023-12-04T06:39:18.301Z,99786.31
2023-12-04T06:41:47.775Z,99783.00
2023-12-04T06:44:15.439Z,99780.34
2023-12-04T06:46:44.462Z,99772.69
2023-12-04T06:49:18.185Z,99770.50
2023-12-04T06:51:53.522Z,99760.81
2023-12-04T06:54:20.771Z,99758.84
2023-12-04T06:56:48.429Z,99761.47
2023-12-04T06:59:15.663Z,99746.63
2023-12-04T07:01:47.355Z,99752.81
2023-12-04T07:07:09.863Z,99757.16
2023-12-04T07:09:37.498Z,99760.81
2023-12-04T07:12:05.062Z,99736.78
2023-12-04T07:14:32.454Z,99734.25
2023-12-04T07:17:01.962Z,99730.19
2023-12-04T07:19:30.119Z,99724.16
2023-12-04T07:21:57.454Z,99726.69
2023-12-04T07:24:25.009Z,99719.19
2023-12-04T07:27:06.120Z,99710.41
2023-12-04T07:29:56.935Z,99719.69
2023-12-04T07:32:31.079Z,99708.66
2023-12-04T07:35:30.918Z,99707.84
2023-12-04T07:38:09.019Z,99713.03
2023-12-04T07:40:37.992Z,99707.06
2023-12-04T07:43:05.721Z,99704.22
2023-12-04T07:45:37.910Z,99709.66
2023-12-04T07:48:19.611Z,99718.50
2023-12-04T07:50:47.203Z,99714.44
2023-12-04T07:53:14.959Z,99709.88
2023-12-04T07:55:42.158Z,99701.00
2023-12-04T07:58:09.649Z,99699.72
2023-12-04T08:00:37.060Z,99692.72
2023-12-04T08:03:04.359Z,99690.88
2023-12-04T08:05:33.085Z,99683.72
2023-12-04T08:08:00.362Z,99687.13
2023-12-04T08:10:27.996Z,99683.38
2023-12-04T08:12:55.463Z,99678.53
2023-12-04T08:15:22.712Z,99685.19
2023-12-04T08:17:50.009Z,99676.50
2023-12-04T08:20:24.283Z,99679.44
2023-12-04T08:22:56.092Z,99679.75
2023-12-04T08:25:23.360Z,99682.66
2023-12-04T08:27:51.009Z,99659.97
2023-12-04T08:30:19.304Z,99664.84
2023-12-04T08:32:46.591Z,99658.56
2023-12-04T08:35:13.918Z,99663.53
2023-12-04T08:37:41.402Z,99643.72
2023-12-04T08:40:09.618Z,99649.69
2023-12-04T08:42:36.927Z,99649.69
2023-12-04T08:45:07.089Z,99646.78
2023-12-04T08:47:34.903Z,99643.34
2023-12-04T08:50:02.522Z,99633.69
2023-12-04T08:52:29.839Z,99617.38
2023-12-04T08:54:57.921Z,99606.53
2023-12-04T08:57:25.108Z,99619.94
2023-12-04T08:59:52.472Z,99611.53
2023-12-04T09:02:19.881Z,99614.31
2023-12-04T09:04:47.281Z,99615.53
2023-12-04T09:09:47.565Z,99609.78
2023-12-04T09:12:15.586Z,99601.50
2023-12-04T09:14:42.820Z,99597.72
2023-12-04T09:17:10.135Z,99592.00
2023-12-04T09:19:37.603Z,99603.25
2023-12-04T09:22:12.608Z,99600.81
2023-12-04T09:24:45.708Z,99594.19
2023-12-04T09:27:13.165Z,99584.84
2023-12-04T09:29:41.948Z,99570.81
2023-12-04T09:32:09.289Z,99572.38
2023-12-04T09:34:36.863Z,99570.88
2023-12-04T09:37:09.062Z,99564.28
2023-12-04T09:39:39.055Z,99557.34
2023-12-04T09:42:07.431Z,99553.66
2023-12-04T09:44:37.819Z,99556.78
2023-12-04T09:47:06.219Z,99561.63
2023-12-04T09:49:33.662Z,99547.63
2023-12-04T09:52:02.667Z,99547.00
2023-12-04T09:54:30.730Z,99531.84
2023-12-04T09:56:58.771Z,99522.78
2023-12-04T09:59:30.576Z,99523.59
2023-12-04T10:01:58.846Z,99518.31
2023-12-04T10:04:26.593Z,99517.63
2023-12-04T10:06:54.010Z,99504.47
2023-12-04T10:09:23.494Z,99502.41
2023-12-04T10:11:54.377Z,99495.47
2023-12-04T10:14:22.254Z,99485.50
2023-12-04T10:16:50.908Z,99480.56
2023-12-04T10:19:30.382Z,99467.22
2023-12-04T10:22:02.109Z,99485.41
2023-12-04T10:24:37.594Z,99465.00
2023-12-04T10:27:16.084Z,99468.72
2023-12-04T10:29:49.132Z,99460.50
2023-12-04T10:32:24.611Z,99464.84
2023-12-04T10:35:01.662Z,99460.50
2023-12-04T10:37:50.672Z,99451.81
2023-12-04T10:40:39.213Z,99449.06
2023-12-04T10:43:09.682Z,99460.31
2023-12-04T10:45:41.536Z,99440.19
2023-12-04T10:48:24.469Z,99435.84
2023-12-04T10:50:51.855Z,99441.16
2023-12-04T10:53:19.056Z,99442.41
2023-12-04T10:55:46.860Z,99417.91
2023-12-04T10:58:18.469Z,99417.75
2023-12-04T11:00:48.046Z,99401.94
2023-12-04T11:03:37.115Z,99389.78
2023-12-04T11:06:08.948Z,99390.75
2023-12-04T11:08:37.444Z,99372.50
2023-12-04T11:11:08.845Z,99369.84
2023-12-04T11:13:39.139Z,99367.81
2023-12-04T11:16:27.711Z,99349.31
2023-12-04T11:19:04.372Z,99355.19
2023-12-04T11:21:33.743Z,99346.16
2023-12-04T11:24:01.801Z,99344.50
2023-12-04T11:26:29.439Z,99345.25
2023-12-04T11:28:56.996Z,99327.66
2023-12-04T11:31:24.725Z,99324.97
2023-12-04T11:33:51.938Z,99327.47
2023-12-04T11:36:19.261Z,99320.03
2023-12-04T11:38:48.209Z,99305.91
2023-12-04T11:41:20.873Z,99304.91
2023-12-04T11:43:51.315Z,99291.88
2023-12-04T11:46:24.288Z,99295.19
2023-12-04T11:48:54.417Z,99292.25
2023-12-04T11:51:40.263Z,99288.63
2023-12-04T11:54:11.647Z,99295.16
2023-12-04T11:56:38.919Z,99281.25
2023-12-04T11:59:07.453Z,99283.41
2023-12-04T12:01:38.273Z,99274.03
2023-12-04T12:04:09.273Z,99266.78
2023-12-04T12:06:36.764Z,99262.84
2023-12-04T12:09:05.140Z,99259.63
2023-12-04T12:11:32.500Z,99257.72
2023-12-04T12:14:00.575Z,99251.09
2023-12-04T12:16:27.799Z,99244.81
2023-12-04T12:18:55.431Z,99240.22
2023-12-04T12:21:23.831Z,99236.34
2023-12-04T12:23:51.097Z,99238.88
2023-12-04T12:26:18.274Z,99232.00
2023-12-04T12:28:46.431Z,99223.63
2023-12-04T12:31:13.701Z,99227.97
2023-12-04T12:33:41.182Z,99214.81
2023-12-04T12:36:10.011Z,99214.22
2023-12-04T12:38:38.518Z,99204.50
2023-12-04T12:41:08.526Z,99200.09
2023-12-04T12:43:35.853Z,99195.78
2023-12-04T12:46:06.769Z,99195.34
2023-12-04T12:48:34.174Z,99190.75
2023-12-04T12:51:03.716Z,99185.94
2023-12-04T12:53:33.830Z,99181.06
2023-12-04T12:56:02.101Z,99179.88
2023-12-04T12:58:29.615Z,99175.03
2023-12-04T13:00:57.475Z,99174.34
2023-12-04T13:03:25.969Z,99177.31
2023-12-04T13:05:53.653Z,99168.72
2023-12-04T13:08:21.501Z,99159.44
2023-12-04T13:10:48.731Z,99152.94
2023-12-04T13:13:16.120Z,99149.03
2023-12-04T13:15:43.697Z,99148.81
2023-12-04T13:18:12.871Z,99135.25
2023-12-04T13:20:40.164Z,99128.34
2023-12-04T13:23:07.471Z,99117.97
2023-12-04T13:25:34.988Z,99116.78
2023-12-04T13:28:02.299Z,99112.66
2023-12-04T13:30:29.616Z,99105.63
2023-12-04T13:32:57.040Z,99104.47
2023-12-04T13:35:24.344Z,99098.06
2023-12-04T13:37:56.523Z,99093.50
2023-12-04T13:40:27.411Z,99091.66
2023-12-04T13:43:13.952Z,99091.44
2023-12-04T13:45:41.253Z,99096.50
2023-12-04T13:48:08.751Z,99098.28
2023-12-04T13:50:36.726Z,99098.56
2023-12-04T13:53:04.547Z,99099.50
2023-12-04T13:55:48.994Z,99086.69
2023-12-04T13:58:36.707Z,99081.09
2023-12-04T14:01:14.861Z,99076.88
2023-12-04T14:03:44.095Z,99082.19
2023-12-04T14:06:12.064Z,99081.63
2023-12-04T14:08:39.761Z,99080.00
2023-12-04T14:11:07.308Z,99071.97
2023-12-04T14:13:34.897Z,99068.47
2023-12-04T14:16:05.060Z,99070.94
2023-12-04T14:18:33.751Z,99064.97
2023-12-04T14:21:01.071Z,99063.16
2023-12-04T14:23:28.424Z,99071.97
2023-12-04T14:25:56.143Z,99057.63
2023-12-04T14:28:29.022Z,99058.25
2023-12-04T14:31:00.189Z,99056.22
2023-12-04T14:33:27.503Z,99053.00
2023-12-04T14:35:55.533Z,99059.16
2023-12-04T14:38:27.921Z,99045.28
2023-12-04T14:40:59.966Z,99055.72
2023-12-04T14:43:28.671Z,99051.19
2023-12-04T14:45:55.865Z,99044.34
2023-12-04T14:48:23.649Z,99043.75
2023-12-04T14:50:51.090Z,99041.84
2023-12-04T14:53:30.332Z,99038.31
2023-12-04T14:56:35.275Z,99036.56
2023-12-04T14:59:07.012Z,99036.38
2023-12-04T15:02:00.250Z,99033.06
2023-12-04T15:04:27.625Z,99035.97
2023-12-04T15:07:13.436Z,99030.47
2023-12-04T15:09:46.387Z,99027.34
2023-12-04T15:12:13.733Z,99026.69
2023-12-04T15:15:01.314Z,99026.38
2023-12-04T15:17:35.575Z,99022.53
2023-12-04T15:20:11.716Z,99026.25
2023-12-04T15:22:39.069Z,99021.06
2023-12-04T15:25:12.483Z,99025.44
2023-12-04T15:27:39.778Z,99021.22
2023-12-04T15:30:09.452Z,99018.38
2023-12-04T15:32:36.732Z,99022.00
2023-12-04T15:35:06.118Z,99018.38
2023-12-04T15:37:35.191Z,99013.56
2023-12-04T15:40:02.795Z,99017.03
2023-12-04T15:42:30.113Z,99013.56
2023-12-04T15:44:57.423Z,99021.22
2023-12-04T15:47:26.975Z,99019.44
2023-12-04T15:49:54.318Z,99014.13
2023-12-04T15:52:25.923Z,99018.22
2023-12-04T15:54:53.573Z,99005.69
2023-12-04T15:57:21.003Z,99014.91
2023-12-04T15:59:48.370Z,99006.56
2023-12-04T16:02:15.701Z,99012.16
2023-12-04T16:04:43.670Z,99014.31
2023-12-04T16:07:11.002Z,99013.53
2023-12-04T16:09:38.303Z,99024.97
2023-12-04T16:12:06.848Z,99016.19
2023-12-04T16:14:34.015Z,99013.78
2023-12-04T16:17:01.220Z,99014.56
2023-12-04T16:19:30.986Z,99022.03
2023-12-04T16:21:58.330Z,99012.81
2023-12-04T16:24:25.550Z,99017.06
2023-12-04T16:26:54.471Z,99007.03
2023-12-04T16:29:21.733Z,99007.75
2023-12-04T16:31:48.896Z,99002.88
2023-12-04T16:34:16.322Z,99002.03
2023-12-04T16:36:43.713Z,99006.31
2023-12-04T16:39:11.014Z,99003.13
2023-12-04T16:41:38.316Z,99003.28
2023-12-04T16:44:06.134Z,99004.09
2023-12-04T16:46:33.442Z,98991.47
2023-12-04T16:49:00.984Z,98992.63
2023-12-04T16:51:28.352Z,99002.25
2023-12-04T16:53:56.858Z,98985.47
2023-12-04T16:56:24.339Z,98989.88
2023-12-04T16:58:51.570Z,98990.69
2023-12-04T17:01:18.727Z,98986.69
2023-12-04T17:03:46.076Z,98985.72
2023-12-04T17:06:13.430Z,98997.25
2023-12-04T17:08:40.808Z,98990.88
2023-12-04T17:11:08.511Z,98997.69
2023-12-04T17:13:38.754Z,98986.00
2023-12-04T17:16:06.999Z,98988.41
2023-12-04T17:18:34.267Z,98982.88
2023-12-04T17:21:01.591Z,98983.47
2023-12-04T17:23:28.979Z,98983.84
2023-12-04T17:25:56.335Z,98973.72
2023-12-04T17:28:24.447Z,98984.47
2023-12-04T17:30:52.437Z,98985.47
2023-12-04T17:33:21.348Z,98983.56
2023-12-04T17:35:48.758Z,98987.66
2023-12-04T17:38:16.056Z,98995.75
2023-12-04T17:40:43.225Z,98987.59
2023-12-04T17:43:11.768Z,98997.59
2023-12-04T17:45:39.366Z,98991.13
2023-12-04T17:48:07.129Z,98988.09
2023-12-04T17:50:34.560Z,98993.63
2023-12-04T17:53:01.828Z,98990.41
2023-12-04T17:55:31.168Z,98992.38
2023-12-04T17:57:59.772Z,98989.97
2023-12-04T18:00:27.196Z,98997.44
2023-12-04T18:02:54.456Z,98988.72
2023-12-04T18:05:23.889Z,98988.00
2023-12-04T18:07:51.324Z,99000.34
2023-12-04T18:10:18.866Z,98997.53
2023-12-04T18:12:47.755Z,99000.44
2023-12-04T18:15:16.572Z,99002.22
2023-12-04T18:17:44.252Z,99003.28
2023-12-04T18:20:14.685Z,99013.69
2023-12-04T18:22:46.100Z,99010.47
2023-12-04T18:25:14.120Z,99015.44
2023-12-04T18:27:41.895Z,99021.97
2023-12-04T18:30:10.905Z,99029.13
2023-12-04T18:32:38.666Z,99032.25
2023-12-04T18:35:06.752Z,99037.56
2023-12-04T18:37:51.724Z,99028.66
2023-12-04T18:40:20.465Z,99047.78
2023-12-04T18:42:48.173Z,99039.44
2023-12-04T18:45:15.941Z,99037.56
2023-12-04T18:47:45.494Z,99038.81
2023-12-04T18:50:13.733Z,99043.31
2023-12-04T18:52:41.249Z,99051.13
2023-12-04T18:55:08.889Z,99044.09
2023-12-04T18:57:36.170Z,99045.47
2023-12-04T19:02:32.676Z,99062.94
2023-12-04T19:05:00.079Z,99060.63
2023-12-04T19:07:27.786Z,99065.56
2023-12-04T19:09:55.045Z,99076.97
2023-12-04T19:12:22.387Z,99066.81
2023-12-04T19:14:51.844Z,99075.88
2023-12-04T19:17:19.204Z,99079.91
2023-12-04T19:19:47.416Z,99086.28
2023-12-04T19:22:14.800Z,99089.75
2023-12-04T19:24:42.174Z,99093.50
2023-12-04T19:27:19.678Z,99103.97
2023-12-04T19:29:49.837Z,99097.38
2023-12-04T19:32:20.735Z,99096.50
2023-12-04T19:34:49.222Z,99091.78
2023-12-04T19:37:16.409Z,99086.44
2023-12-04T19:39:49.620Z,99092.41
2023-12-04T19:42:16.891Z,99103.34
2023-12-04T19:44:45.124Z,99108.41
2023-12-04T19:47:12.640Z,99103.72
2023-12-04T19:49:44.179Z,99115.97
2023-12-04T19:52:12.592Z,99105.47
2023-12-04T19:54:43.297Z,99114.19
2023-12-04T19:57:11.333Z,99109.47
2023-12-04T19:59:38.703Z,99119.88
2023-12-04T20:02:06.175Z,99130.53
2023-12-04T20:04:35.394Z,99137.66
2023-12-04T20:07:04.224Z,99135.00
2023-12-04T20:09:31.551Z,99139.06
2023-12-04T20:11:58.768Z,99138.63
2023-12-04T20:14:26.012Z,99149.75
2023-12-04T20:16:53.282Z,99155.06
2023-12-04T20:19:20.666Z,99161.00
2023-12-04T20:21:47.986Z,99159.34
2023-12-04T20:24:16.050Z,99153.22
2023-12-04T20:26:43.340Z,99150.00
2023-12-04T20:29:10.778Z,99165.97
2023-12-04T20:31:38.852Z,99169.28
2023-12-04T20:34:06.883Z,99162.81
2023-12-04T20:36:36.572Z,99173.56
2023-12-04T20:39:09.727Z,99173.72
2023-12-04T20:41:38.169Z,99182.16
2023-12-04T20:44:06.322Z,99176.47
2023-12-04T20:46:33.660Z,99189.69
2023-12-04T20:49:03.065Z,99186.59
2023-12-04T20:51:31.480Z,99199.38
2023-12-04T20:53:58.697Z,99186.31
2023-12-04T20:56:25.964Z,99191.19
2023-12-04T20:58:59.054Z,99193.75
2023-12-04T21:01:26.403Z,99201.34
2023-12-04T21:03:53.991Z,99215.31
2023-12-04T21:06:21.366Z,99219.69
2023-12-04T21:08:48.616Z,99210.09
2023-12-04T21:11:15.871Z,99211.38
2023-12-04T21:13:43.149Z,99236.16
2023-12-04T21:16:10.798Z,99229.91
2023-12-04T21:18:38.107Z,99240.59
2023-12-04T21:21:05.735Z,99242.91
2023-12-04T21:23:33.017Z,99250.53
2023-12-04T21:26:00.252Z,99253.66
2023-12-04T21:28:27.559Z,99251.88
2023-12-04T21:30:57.123Z,99269.00
2023-12-04T21:33:26.435Z,99261.00
2023-12-04T21:35:53.855Z,99250.88
2023-12-04T21:38:21.858Z,99259.50
2023-12-04T21:40:49.055Z,99273.22
2023-12-04T21:43:16.314Z,99272.94
2023-12-04T21:45:43.527Z,99272.31
2023-12-04T21:48:11.110Z,99273.56
2023-12-04T21:50:38.388Z,99286.91
2023-12-04T21:53:05.691Z,99286.44
2023-12-04T21:55:32.940Z,99286.38
2023-12-04T21:58:00.111Z,99285.19
2023-12-04T22:00:29.221Z,99289.97
2023-12-04T22:02:56.669Z,99292.13
2023-12-04T22:05:23.865Z,99296.75
2023-12-04T22:07:51.074Z,99307.72
2023-12-04T22:10:18.304Z,99303.91
2023-12-04T22:12:45.665Z,99303.69
2023-12-04T22:15:13.093Z,99318.38
2023-12-04T22:17:41.618Z,99319.59
2023-12-04T22:20:09.367Z,99323.50
2023-12-04T22:22:36.653Z,99320.16
2023-12-04T22:25:04.497Z,99323.56
2023-12-04T22:27:37.878Z,99330.78
2023-12-04T22:30:06.717Z,99335.47
2023-12-04T22:32:37.431Z,99336.91
2023-12-04T22:35:06.156Z,99343.84
2023-12-04T22:37:33.607Z,99341.75
2023-12-04T22:40:00.995Z,99340.28
2023-12-04T22:42:28.312Z,99348.31
2023-12-04T22:44:55.663Z,99351.44
2023-12-04T22:47:22.855Z,99355.50
2023-12-04T22:49:50.123Z,99353.69
2023-12-04T22:52:17.368Z,99355.00
2023-12-04T22:54:44.912Z,99364.75
2023-12-04T22:57:12.322Z,99361.41
2023-12-04T22:59:39.628Z,99366.19
2023-12-04T23:02:06.863Z,99365.53
2023-12-04T23:04:44.898Z,99356.81
2023-12-04T23:07:12.301Z,99369.19
2023-12-04T23:09:39.730Z,99371.38
2023-12-04T23:12:07.239Z,99369.78
2023-12-04T23:14:34.497Z,99369.56
2023-12-04T23:17:01.721Z,99368.44
2023-12-04T23:19:29.265Z,99383.19
2023-12-04T23:21:59.652Z,99383.75
2023-12-04T23:24:26.982Z,99390.22
2023-12-04T23:26:54.258Z,99390.66
2023-12-04T23:29:22.308Z,99398.13
2023-12-04T23:31:49.519Z,99403.75
2023-12-04T23:34:16.973Z,99401.53
2023-12-04T23:36:44.391Z,99415.03
2023-12-04T23:39:36.494Z,99411.75
2023-12-04T23:42:03.939Z,99414.06
2023-12-04T23:44:31.183Z,99395.94
2023-12-04T23:46:59.251Z,99410.63
2023-12-04T23:49:26.450Z,99409.94
2023-12-04T23:51:55.877Z,99421.75
2023-12-04T23:54:28.014Z,99409.69
2023-12-04T23:56:55.258Z,99405.22
2023-12-04T23:59:41.063Z,99417.16
